sensor_id;sensor_type;location;lat;lon;timestamp;pressure;altitude;pressure_sealevel;temperature;humidity
48846;BME280;34665;51.886;5.436;2023-02-03T00:01:21;102297.22;;;16.38;100.00
48846;BME280;34665;51.886;5.436;2023-02-03T00:03:47;102306.97;;;17.50;100.00
48846;BME280;34665;51.886;5.436;2023-02-03T00:06:12;102305.19;;;16.18;100.00
48846;BME280;34665;51.886;5.436;2023-02-03T00:08:38;102313.22;;;17.30;100.00
48846;BME280;34665;51.886;5.436;2023-02-03T00:11:04;102303.88;;;16.42;100.00
48846;BME280;34665;51.886;5.436;2023-02-03T00:13:30;102316.63;;;16.55;100.00
48846;BME280;34665;51.886;5.436;2023-02-03T00:15:55;102336.84;;;16.66;100.00
48846;BME280;34665;51.886;5.436;2023-02-03T00:18:21;102330.44;;;16.81;100.00
48846;BME280;34665;51.886;5.436;2023-02-03T00:20:46;102327.84;;;16.59;100.00
48846;BME280;34665;51.886;5.436;2023-02-03T00:23:12;102338.59;;;16.87;100.00
48846;BME280;34665;51.886;5.436;2023-02-03T00:25:37;102341.22;;;17.16;100.00
48846;BME280;34665;51.886;5.436;2023-02-03T00:28:03;102345.16;;;17.13;100.00
48846;BME280;34665;51.886;5.436;2023-02-03T00:30:30;102346.81;;;16.37;100.00
48846;BME280;34665;51.886;5.436;2023-02-03T00:32:55;102343.47;;;16.99;100.00
48846;BME280;34665;51.886;5.436;2023-02-03T00:35:21;102338.31;;;16.75;100.00
48846;BME280;34665;51.886;5.436;2023-02-03T00:37:51;102346.28;;;16.48;100.00
48846;BME280;34665;51.886;5.436;2023-02-03T00:40:21;102350.19;;;16.39;100.00
48846;BME280;34665;51.886;5.436;2023-02-03T00:42:47;102351.28;;;16.94;100.00
48846;BME280;34665;51.886;5.436;2023-02-03T00:45:12;102356.38;;;17.10;100.00
48846;BME280;34665;51.886;5.436;2023-02-03T00:47:38;102366.59;;;16.80;100.00
48846;BME280;34665;51.886;5.436;2023-02-03T00:50:05;102361.53;;;16.98;100.00
48846;BME280;34665;51.886;5.436;2023-02-03T00:52:30;102356.69;;;16.87;100.00
48846;BME280;34665;51.886;5.436;2023-02-03T00:54:56;102360.88;;;16.96;100.00
48846;BME280;34665;51.886;5.436;2023-02-03T00:57:21;102356.06;;;16.85;100.00
48846;BME280;34665;51.886;5.436;2023-02-03T00:59:47;102348.13;;;16.41;100.00
48846;BME280;34665;51.886;5.436;2023-02-03T01:02:12;102330.94;;;16.20;100.00
48846;BME280;34665;51.886;5.436;2023-02-03T01:04:38;102349.63;;;16.22;100.00
48846;BME280;34665;51.886;5.436;2023-02-03T01:07:03;102354.53;;;16.75;100.00
48846;BME280;34665;51.886;5.436;2023-02-03T01:09:32;102336.41;;;16.34;100.00
48846;BME280;34665;51.886;5.436;2023-02-03T01:11:58;102328.59;;;16.39;100.00
48846;BME280;34665;51.886;5.436;2023-02-03T01:14:24;102327.75;;;16.39;100.00
48846;BME280;34665;51.886;5.436;2023-02-03T01:16:50;102335.50;;;16.97;100.00
48846;BME280;34665;51.886;5.436;2023-02-03T01:19:16;102327.69;;;17.09;100.00
48846;BME280;34665;51.886;5.436;2023-02-03T01:21:42;102320.72;;;17.42;100.00
48846;BME280;34665;51.886;5.436;2023-02-03T01:24:07;102301.75;;;16.80;100.00
48846;BME280;34665;51.886;5.436;2023-02-03T01:26:34;102332.75;;;17.32;100.00
48846;BME280;34665;51.886;5.436;2023-02-03T01:29:00;102332.03;;;16.61;100.00
48846;BME280;34665;51.886;5.436;2023-02-03T01:31:34;102326.94;;;16.80;100.00
48846;BME280;34665;51.886;5.436;2023-02-03T01:34:02;102317.63;;;16.47;100.00
48846;BME280;34665;51.886;5.436;2023-02-03T01:36:29;102311.38;;;16.47;100.00
48846;BME280;34665;51.886;5.436;2023-02-03T01:38:55;102316.59;;;16.48;100.00
48846;BME280;34665;51.886;5.436;2023-02-03T01:41:24;102315.69;;;16.34;100.00
48846;BME280;34665;51.886;5.436;2023-02-03T01:43:53;102307.13;;;16.66;100.00
48846;BME280;34665;51.886;5.436;2023-02-03T01:46:37;102302.91;;;16.57;100.00
48846;BME280;34665;51.886;5.436;2023-02-03T01:49:07;102306.56;;;16.84;100.00
48846;BME280;34665;51.886;5.436;2023-02-03T01:51:35;102281.47;;;16.97;100.00
48846;BME280;34665;51.886;5.436;2023-02-03T01:54:03;102268.94;;;16.83;100.00
48846;BME280;34665;51.886;5.436;2023-02-03T01:56:34;102280.75;;;17.24;100.00
48846;BME280;34665;51.886;5.436;2023-02-03T01:59:03;102283.78;;;17.00;100.00
48846;BME280;34665;51.886;5.436;2023-02-03T02:01:29;102291.56;;;16.68;100.00
48846;BME280;34665;51.886;5.436;2023-02-03T02:03:58;102298.69;;;16.89;100.00
48846;BME280;34665;51.886;5.436;2023-02-03T02:06:24;102288.31;;;16.93;100.00
48846;BME280;34665;51.886;5.436;2023-02-03T02:08:52;102297.50;;;16.57;100.00
48846;BME280;34665;51.886;5.436;2023-02-03T02:11:19;102305.13;;;17.71;100.00
48846;BME280;34665;51.886;5.436;2023-02-03T02:13:46;102296.56;;;17.27;100.00
48846;BME280;34665;51.886;5.436;2023-02-03T02:22:12;102279.47;;;17.26;100.00
48846;BME280;34665;51.886;5.436;2023-02-03T02:33:09;102294.81;;;17.05;100.00
48846;BME280;34665;51.886;5.436;2023-02-03T02:35:49;102291.41;;;16.83;100.00
48846;BME280;34665;51.886;5.436;2023-02-03T02:41:34;102292.38;;;16.27;100.00
48846;BME280;34665;51.886;5.436;2023-02-03T02:44:35;102292.13;;;17.05;100.00
48846;BME280;34665;51.886;5.436;2023-02-03T02:47:09;102278.09;;;16.75;100.00
48846;BME280;34665;51.886;5.436;2023-02-03T02:49:53;102279.38;;;16.86;100.00
48846;BME280;34665;51.886;5.436;2023-02-03T02:52:21;102273.91;;;17.34;100.00
48846;BME280;34665;51.886;5.436;2023-02-03T02:54:51;102285.22;;;16.96;100.00
48846;BME280;34665;51.886;5.436;2023-02-03T02:57:20;102271.47;;;16.91;100.00
48846;BME280;34665;51.886;5.436;2023-02-03T02:59:48;102258.88;;;17.05;100.00
48846;BME280;34665;51.886;5.436;2023-02-03T03:02:13;102258.44;;;16.53;100.00
48846;BME280;34665;51.886;5.436;2023-02-03T03:04:41;102259.81;;;16.90;100.00
48846;BME280;34665;51.886;5.436;2023-02-03T03:07:17;102242.47;;;16.58;100.00
48846;BME280;34665;51.886;5.436;2023-02-03T03:09:47;102267.97;;;16.48;100.00
48846;BME280;34665;51.886;5.436;2023-02-03T03:12:21;102254.66;;;16.47;100.00
48846;BME280;34665;51.886;5.436;2023-02-03T03:14:55;102242.75;;;16.76;100.00
48846;BME280;34665;51.886;5.436;2023-02-03T03:17:26;102227.66;;;17.02;100.00
48846;BME280;34665;51.886;5.436;2023-02-03T03:19:55;102227.50;;;17.11;100.00
48846;BME280;34665;51.886;5.436;2023-02-03T03:22:29;102224.72;;;16.97;100.00
48846;BME280;34665;51.886;5.436;2023-02-03T03:25:05;102241.38;;;16.45;100.00
48846;BME280;34665;51.886;5.436;2023-02-03T03:27:40;102246.59;;;16.54;100.00
48846;BME280;34665;51.886;5.436;2023-02-03T03:30:12;102238.59;;;16.81;100.00
48846;BME280;34665;51.886;5.436;2023-02-03T03:32:39;102253.81;;;16.95;100.00
48846;BME280;34665;51.886;5.436;2023-02-03T03:35:05;102267.75;;;16.92;100.00
48846;BME280;34665;51.886;5.436;2023-02-03T03:37:37;102282.81;;;16.66;100.00
48846;BME280;34665;51.886;5.436;2023-02-03T03:40:11;102278.28;;;17.36;100.00
48846;BME280;34665;51.886;5.436;2023-02-03T03:42:50;102274.06;;;17.26;100.00
48846;BME280;34665;51.886;5.436;2023-02-03T03:45:41;102270.03;;;16.95;100.00
48846;BME280;34665;51.886;5.436;2023-02-03T03:48:13;102261.19;;;17.15;100.00
48846;BME280;34665;51.886;5.436;2023-02-03T03:50:48;102264.31;;;17.52;100.00
48846;BME280;34665;51.886;5.436;2023-02-03T03:53:16;102261.09;;;16.88;100.00
48846;BME280;34665;51.886;5.436;2023-02-03T03:55:46;102264.19;;;16.43;100.00
48846;BME280;34665;51.886;5.436;2023-02-03T03:58:17;102263.47;;;17.18;100.00
48846;BME280;34665;51.886;5.436;2023-02-03T04:00:44;102280.50;;;16.56;100.00
48846;BME280;34665;51.886;5.436;2023-02-03T04:03:17;102282.03;;;16.37;100.00
48846;BME280;34665;51.886;5.436;2023-02-03T04:05:46;102274.06;;;16.57;100.00
48846;BME280;34665;51.886;5.436;2023-02-03T04:08:12;102285.44;;;16.53;100.00
48846;BME280;34665;51.886;5.436;2023-02-03T04:10:39;102298.16;;;17.01;100.00
48846;BME280;34665;51.886;5.436;2023-02-03T04:13:06;102287.69;;;16.91;100.00
48846;BME280;34665;51.886;5.436;2023-02-03T04:15:33;102270.09;;;17.02;100.00
48846;BME280;34665;51.886;5.436;2023-02-03T04:17:59;102283.22;;;17.12;100.00
48846;BME280;34665;51.886;5.436;2023-02-03T04:20:26;102296.72;;;16.70;100.00
48846;BME280;34665;51.886;5.436;2023-02-03T04:22:52;102286.19;;;17.44;100.00
48846;BME280;34665;51.886;5.436;2023-02-03T04:25:17;102289.66;;;17.17;100.00
48846;BME280;34665;51.886;5.436;2023-02-03T04:27:43;102284.41;;;16.96;100.00
48846;BME280;34665;51.886;5.436;2023-02-03T04:30:09;102300.94;;;16.79;100.00
48846;BME280;34665;51.886;5.436;2023-02-03T04:32:35;102283.22;;;17.12;100.00
48846;BME280;34665;51.886;5.436;2023-02-03T04:35:02;102286.38;;;16.73;100.00
48846;BME280;34665;51.886;5.436;2023-02-03T04:37:28;102273.31;;;16.84;100.00
48846;BME280;34665;51.886;5.436;2023-02-03T04:39:53;102287.06;;;16.40;100.00
48846;BME280;34665;51.886;5.436;2023-02-03T04:42:20;102274.94;;;16.71;100.00
48846;BME280;34665;51.886;5.436;2023-02-03T04:44:46;102272.69;;;16.82;100.00
48846;BME280;34665;51.886;5.436;2023-02-03T04:47:11;102282.19;;;17.19;100.00
48846;BME280;34665;51.886;5.436;2023-02-03T04:49:37;102289.06;;;16.73;100.00
48846;BME280;34665;51.886;5.436;2023-02-03T04:52:02;102273.94;;;16.79;100.00
48846;BME280;34665;51.886;5.436;2023-02-03T04:54:28;102264.72;;;16.67;100.00
48846;BME280;34665;51.886;5.436;2023-02-03T04:56:53;102278.97;;;16.89;100.00
48846;BME280;34665;51.886;5.436;2023-02-03T04:59:19;102289.97;;;16.94;100.00
48846;BME280;34665;51.886;5.436;2023-02-03T05:01:44;102268.78;;;16.91;100.00
48846;BME280;34665;51.886;5.436;2023-02-03T05:04:10;102266.16;;;17.18;100.00
48846;BME280;34665;51.886;5.436;2023-02-03T05:06:35;102258.91;;;17.25;100.00
48846;BME280;34665;51.886;5.436;2023-02-03T05:09:01;102263.72;;;16.74;100.00
48846;BME280;34665;51.886;5.436;2023-02-03T05:11:27;102268.66;;;17.26;100.00
48846;BME280;34665;51.886;5.436;2023-02-03T05:13:53;102259.94;;;16.62;100.00
48846;BME280;34665;51.886;5.436;2023-02-03T05:16:19;102276.75;;;16.57;100.00
48846;BME280;34665;51.886;5.436;2023-02-03T05:18:45;102278.94;;;16.82;100.00
48846;BME280;34665;51.886;5.436;2023-02-03T05:21:11;102285.28;;;17.10;100.00
48846;BME280;34665;51.886;5.436;2023-02-03T05:23:36;102276.25;;;16.47;100.00
48846;BME280;34665;51.886;5.436;2023-02-03T05:26:02;102274.81;;;16.93;100.00
48846;BME280;34665;51.886;5.436;2023-02-03T05:28:27;102284.03;;;16.22;100.00
48846;BME280;34665;51.886;5.436;2023-02-03T05:30:57;102267.28;;;16.82;100.00
48846;BME280;34665;51.886;5.436;2023-02-03T05:33:22;102266.84;;;16.71;100.00
48846;BME280;34665;51.886;5.436;2023-02-03T05:35:48;102275.38;;;16.75;100.00
48846;BME280;34665;51.886;5.436;2023-02-03T05:38:13;102287.28;;;16.94;100.00
48846;BME280;34665;51.886;5.436;2023-02-03T05:40:40;102298.09;;;16.94;100.00
48846;BME280;34665;51.886;5.436;2023-02-03T05:43:24;102292.16;;;16.63;100.00
48846;BME280;34665;51.886;5.436;2023-02-03T05:45:49;102289.09;;;17.42;100.00
48846;BME280;34665;51.886;5.436;2023-02-03T05:48:15;102284.38;;;16.89;100.00
48846;BME280;34665;51.886;5.436;2023-02-03T05:50:40;102282.44;;;17.31;100.00
48846;BME280;34665;51.886;5.436;2023-02-03T05:53:06;102285.22;;;16.47;100.00
48846;BME280;34665;51.886;5.436;2023-02-03T05:55:33;102278.84;;;17.24;100.00
48846;BME280;34665;51.886;5.436;2023-02-03T05:57:59;102292.56;;;16.60;100.00
48846;BME280;34665;51.886;5.436;2023-02-03T06:00:25;102280.25;;;17.06;100.00
48846;BME280;34665;51.886;5.436;2023-02-03T06:02:56;102280.13;;;16.66;100.00
48846;BME280;34665;51.886;5.436;2023-02-03T06:05:23;102283.63;;;17.15;100.00
48846;BME280;34665;51.886;5.436;2023-02-03T06:07:50;102277.03;;;17.45;100.00
48846;BME280;34665;51.886;5.436;2023-02-03T06:10:16;102280.13;;;16.66;100.00
48846;BME280;34665;51.886;5.436;2023-02-03T06:12:42;102266.47;;;16.88;100.00
48846;BME280;34665;51.886;5.436;2023-02-03T06:15:09;102252.97;;;16.95;100.00
48846;BME280;34665;51.886;5.436;2023-02-03T06:17:34;102260.00;;;16.33;100.00
48846;BME280;34665;51.886;5.436;2023-02-03T06:20:10;102256.72;;;16.94;100.00
48846;BME280;34665;51.886;5.436;2023-02-03T06:22:36;102270.59;;;16.77;100.00
48846;BME280;34665;51.886;5.436;2023-02-03T06:25:01;102270.34;;;16.72;100.00
48846;BME280;34665;51.886;5.436;2023-02-03T06:27:27;102263.66;;;16.19;100.00
48846;BME280;34665;51.886;5.436;2023-02-03T06:29:52;102273.97;;;16.86;100.00
48846;BME280;34665;51.886;5.436;2023-02-03T06:32:18;102269.25;;;17.01;100.00
48846;BME280;34665;51.886;5.436;2023-02-03T06:34:43;102254.91;;;17.01;100.00
48846;BME280;34665;51.886;5.436;2023-02-03T06:37:09;102273.78;;;16.94;100.00
48846;BME280;34665;51.886;5.436;2023-02-03T06:39:34;102273.25;;;17.26;100.00
48846;BME280;34665;51.886;5.436;2023-02-03T06:42:00;102278.09;;;17.57;100.00
48846;BME280;34665;51.886;5.436;2023-02-03T06:44:26;102281.19;;;16.78;100.00
48846;BME280;34665;51.886;5.436;2023-02-03T06:46:52;102297.19;;;17.29;100.00
48846;BME280;34665;51.886;5.436;2023-02-03T06:49:17;102300.63;;;17.02;100.00
48846;BME280;34665;51.886;5.436;2023-02-03T06:51:44;102303.28;;;16.89;100.00
48846;BME280;34665;51.886;5.436;2023-02-03T06:54:11;102312.69;;;17.06;100.00
48846;BME280;34665;51.886;5.436;2023-02-03T06:56:36;102318.28;;;16.98;100.00
48846;BME280;34665;51.886;5.436;2023-02-03T06:59:02;102340.31;;;16.60;100.00
48846;BME280;34665;51.886;5.436;2023-02-03T07:01:28;102310.88;;;16.65;100.00
48846;BME280;34665;51.886;5.436;2023-02-03T07:03:55;102316.00;;;16.60;100.00
48846;BME280;34665;51.886;5.436;2023-02-03T07:06:26;102321.13;;;16.48;100.00
48846;BME280;34665;51.886;5.436;2023-02-03T07:08:55;102314.03;;;17.31;100.00
48846;BME280;34665;51.886;5.436;2023-02-03T07:11:21;102318.94;;;17.07;100.00
48846;BME280;34665;51.886;5.436;2023-02-03T07:13:47;102309.06;;;17.34;100.00
48846;BME280;34665;51.886;5.436;2023-02-03T07:16:13;102320.28;;;17.38;100.00
48846;BME280;34665;51.886;5.436;2023-02-03T07:18:38;102322.09;;;17.11;100.00
48846;BME280;34665;51.886;5.436;2023-02-03T07:21:05;102329.63;;;16.45;100.00
48846;BME280;34665;51.886;5.436;2023-02-03T07:23:31;102327.34;;;16.42;100.00
48846;BME280;34665;51.886;5.436;2023-02-03T07:26:01;102322.06;;;16.62;100.00
48846;BME280;34665;51.886;5.436;2023-02-03T07:28:30;102304.44;;;16.66;100.00
48846;BME280;34665;51.886;5.436;2023-02-03T07:30:55;102333.88;;;16.54;100.00
48846;BME280;34665;51.886;5.436;2023-02-03T07:33:22;102321.06;;;17.12;100.00
48846;BME280;34665;51.886;5.436;2023-02-03T07:35:55;102313.78;;;16.70;100.00
48846;BME280;34665;51.886;5.436;2023-02-03T07:38:22;102329.47;;;16.95;100.00
48846;BME280;34665;51.886;5.436;2023-02-03T07:40:48;102329.75;;;16.30;100.00
48846;BME280;34665;51.886;5.436;2023-02-03T07:43:14;102328.22;;;15.92;100.00
48846;BME280;34665;51.886;5.436;2023-02-03T07:45:40;102339.75;;;16.36;100.00
48846;BME280;34665;51.886;5.436;2023-02-03T07:48:06;102337.16;;;16.91;100.00
48846;BME280;34665;51.886;5.436;2023-02-03T07:50:31;102332.34;;;16.80;100.00
48846;BME280;34665;51.886;5.436;2023-02-03T07:52:58;102344.91;;;16.59;100.00
48846;BME280;34665;51.886;5.436;2023-02-03T07:55:24;102339.56;;;16.38;100.00
48846;BME280;34665;51.886;5.436;2023-02-03T07:57:52;102336.75;;;16.24;100.00
48846;BME280;34665;51.886;5.436;2023-02-03T08:00:19;102339.75;;;16.71;100.00
48846;BME280;34665;51.886;5.436;2023-02-03T08:02:45;102332.09;;;16.75;100.00
48846;BME280;34665;51.886;5.436;2023-02-03T08:05:11;102325.72;;;15.90;100.00
48846;BME280;34665;51.886;5.436;2023-02-03T08:07:37;102330.56;;;16.24;100.00
48846;BME280;34665;51.886;5.436;2023-02-03T08:10:04;102338.31;;;16.75;100.00
48846;BME280;34665;51.886;5.436;2023-02-03T08:12:30;102350.03;;;16.89;100.00
48846;BME280;34665;51.886;5.436;2023-02-03T08:14:55;102354.13;;;16.78;100.00
48846;BME280;34665;51.886;5.436;2023-02-03T08:17:21;102347.28;;;16.76;100.00
48846;BME280;34665;51.886;5.436;2023-02-03T08:19:47;102349.53;;;16.72;100.00
48846;BME280;34665;51.886;5.436;2023-02-03T08:22:12;102351.38;;;16.65;100.00
48846;BME280;34665;51.886;5.436;2023-02-03T08:24:44;102346.00;;;17.14;100.00
48846;BME280;34665;51.886;5.436;2023-02-03T08:27:16;102347.03;;;16.36;100.00
48846;BME280;34665;51.886;5.436;2023-02-03T08:29:42;102360.97;;;16.74;100.00
48846;BME280;34665;51.886;5.436;2023-02-03T08:32:09;102363.50;;;16.76;100.00
48846;BME280;34665;51.886;5.436;2023-02-03T08:34:36;102368.28;;;16.45;100.00
48846;BME280;34665;51.886;5.436;2023-02-03T08:37:02;102371.47;;;17.40;100.00
48846;BME280;34665;51.886;5.436;2023-02-03T08:39:27;102364.19;;;16.56;100.00
48846;BME280;34665;51.886;5.436;2023-02-03T08:41:53;102365.53;;;17.09;100.00
48846;BME280;34665;51.886;5.436;2023-02-03T08:44:19;102371.41;;;17.26;100.00
48846;BME280;34665;51.886;5.436;2023-02-03T08:46:48;102366.13;;;17.04;100.00
48846;BME280;34665;51.886;5.436;2023-02-03T08:49:14;102379.72;;;17.25;100.00
48846;BME280;34665;51.886;5.436;2023-02-03T08:51:39;102374.16;;;16.91;100.00
48846;BME280;34665;51.886;5.436;2023-02-03T08:54:05;102364.75;;;17.22;100.00
48846;BME280;34665;51.886;5.436;2023-02-03T08:56:31;102369.38;;;17.42;100.00
48846;BME280;34665;51.886;5.436;2023-02-03T08:58:58;102387.63;;;17.26;100.00
48846;BME280;34665;51.886;5.436;2023-02-03T09:01:24;102374.03;;;17.68;100.00
48846;BME280;34665;51.886;5.436;2023-02-03T09:03:51;102372.72;;;17.44;100.00
48846;BME280;34665;51.886;5.436;2023-02-03T09:06:16;102388.09;;;17.37;100.00
48846;BME280;34665;51.886;5.436;2023-02-03T09:08:43;102379.22;;;17.70;100.00
48846;BME280;34665;51.886;5.436;2023-02-03T09:11:11;102398.69;;;17.31;100.00
48846;BME280;34665;51.886;5.436;2023-02-03T09:13:37;102404.47;;;17.28;100.00
48846;BME280;34665;51.886;5.436;2023-02-03T09:16:05;102396.78;;;17.25;100.00
48846;BME280;34665;51.886;5.436;2023-02-03T09:18:32;102391.38;;;17.25;100.00
48846;BME280;34665;51.886;5.436;2023-02-03T09:21:02;102409.72;;;17.37;100.00
48846;BME280;34665;51.886;5.436;2023-02-03T09:23:27;102411.59;;;17.43;100.00
48846;BME280;34665;51.886;5.436;2023-02-03T09:25:53;102416.47;;;17.68;100.00
48846;BME280;34665;51.886;5.436;2023-02-03T09:28:18;102425.16;;;17.49;100.00
48846;BME280;34665;51.886;5.436;2023-02-03T09:30:44;102424.81;;;17.80;100.00
48846;BME280;34665;51.886;5.436;2023-02-03T09:33:09;102413.16;;;17.92;100.00
48846;BME280;34665;51.886;5.436;2023-02-03T09:35:35;102420.19;;;17.60;100.00
48846;BME280;34665;51.886;5.436;2023-02-03T09:38:01;102423.00;;;18.07;100.00
48846;BME280;34665;51.886;5.436;2023-02-03T09:40:29;102421.16;;;17.39;100.00
48846;BME280;34665;51.886;5.436;2023-02-03T09:45:28;102411.16;;;17.32;100.00
48846;BME280;34665;51.886;5.436;2023-02-03T09:48:05;102416.97;;;18.18;100.00
48846;BME280;34665;51.886;5.436;2023-02-03T09:50:36;102418.97;;;17.69;100.00
48846;BME280;34665;51.886;5.436;2023-02-03T09:53:07;102418.50;;;17.52;100.00
48846;BME280;34665;51.886;5.436;2023-02-03T09:55:42;102410.16;;;17.47;100.00
48846;BME280;34665;51.886;5.436;2023-02-03T09:58:16;102426.50;;;17.25;100.00
48846;BME280;34665;51.886;5.436;2023-02-03T10:00:49;102429.06;;;18.49;100.00
48846;BME280;34665;51.886;5.436;2023-02-03T10:03:35;102429.06;;;18.23;100.00
48846;BME280;34665;51.886;5.436;2023-02-03T10:14:07;102435.28;;;18.10;100.00
48846;BME280;34665;51.886;5.436;2023-02-03T10:16:53;102445.50;;;18.14;100.00
48846;BME280;34665;51.886;5.436;2023-02-03T10:19:26;102435.50;;;18.08;100.00
48846;BME280;34665;51.886;5.436;2023-02-03T10:21:58;102444.81;;;17.85;100.00
48846;BME280;34665;51.886;5.436;2023-02-03T10:24:47;102448.41;;;18.26;100.00
48846;BME280;34665;51.886;5.436;2023-02-03T10:27:22;102458.22;;;18.07;100.00
48846;BME280;34665;51.886;5.436;2023-02-03T10:30:18;102442.22;;;17.57;100.00
48846;BME280;34665;51.886;5.436;2023-02-03T10:32:43;102457.38;;;18.40;100.00
48846;BME280;34665;51.886;5.436;2023-02-03T10:35:12;102445.50;;;18.21;100.00
48846;BME280;34665;51.886;5.436;2023-02-03T10:37:43;102444.06;;;18.39;100.00
48846;BME280;34665;51.886;5.436;2023-02-03T10:40:12;102453.41;;;18.29;100.00
48846;BME280;34665;51.886;5.436;2023-02-03T10:42:39;102449.66;;;18.10;100.00
48846;BME280;34665;51.886;5.436;2023-02-03T10:45:23;102451.28;;;18.92;100.00
48846;BME280;34665;51.886;5.436;2023-02-03T10:47:53;102451.13;;;18.67;100.00
48846;BME280;34665;51.886;5.436;2023-02-03T10:50:25;102447.31;;;18.95;100.00
48846;BME280;34665;51.886;5.436;2023-02-03T10:55:43;102454.00;;;18.99;100.00
48846;BME280;34665;51.886;5.436;2023-02-03T10:58:25;102485.78;;;17.75;100.00
48846;BME280;34665;51.886;5.436;2023-02-03T11:00:56;102474.25;;;18.42;100.00
48846;BME280;34665;51.886;5.436;2023-02-03T11:03:27;102475.31;;;18.34;100.00
48846;BME280;34665;51.886;5.436;2023-02-03T11:06:22;102469.25;;;18.59;100.00
48846;BME280;34665;51.886;5.436;2023-02-03T11:08:50;102468.84;;;18.49;100.00
48846;BME280;34665;51.886;5.436;2023-02-03T11:11:22;102462.63;;;19.34;100.00
48846;BME280;34665;51.886;5.436;2023-02-03T11:14:10;102458.81;;;18.76;100.00
48846;BME280;34665;51.886;5.436;2023-02-03T11:16:39;102462.50;;;19.16;100.00
48846;BME280;34665;51.886;5.436;2023-02-03T11:19:10;102456.97;;;18.70;100.00
48846;BME280;34665;51.886;5.436;2023-02-03T11:24:09;102460.03;;;19.01;100.00
48846;BME280;34665;51.886;5.436;2023-02-03T11:26:48;102476.13;;;18.82;100.00
48846;BME280;34665;51.886;5.436;2023-02-03T11:29:23;102474.31;;;19.42;100.00
48846;BME280;34665;51.886;5.436;2023-02-03T11:31:52;102470.69;;;18.82;100.00
48846;BME280;34665;51.886;5.436;2023-02-03T11:34:23;102466.13;;;18.62;100.00
48846;BME280;34665;51.886;5.436;2023-02-03T11:36:50;102464.00;;;18.98;100.00
48846;BME280;34665;51.886;5.436;2023-02-03T11:39:19;102451.16;;;18.46;100.00
48846;BME280;34665;51.886;5.436;2023-02-03T11:41:45;102471.56;;;18.69;100.00
48846;BME280;34665;51.886;5.436;2023-02-03T11:44:17;102459.13;;;19.20;100.00
48846;BME280;34665;51.886;5.436;2023-02-03T11:46:45;102451.06;;;19.00;100.00
48846;BME280;34665;51.886;5.436;2023-02-03T11:49:38;102459.19;;;19.07;100.00
48846;BME280;34665;51.886;5.436;2023-02-03T11:55:19;102454.44;;;19.87;100.00
48846;BME280;34665;51.886;5.436;2023-02-03T11:57:55;102469.78;;;19.68;100.00
48846;BME280;34665;51.886;5.436;2023-02-03T12:00:42;102459.53;;;19.76;100.00
48846;BME280;34665;51.886;5.436;2023-02-03T12:03:43;102451.44;;;19.11;100.00
48846;BME280;34665;51.886;5.436;2023-02-03T12:09:04;102460.91;;;19.92;100.00
48846;BME280;34665;51.886;5.436;2023-02-03T12:11:46;102450.84;;;19.54;100.00
48846;BME280;34665;51.886;5.436;2023-02-03T12:17:42;102439.81;;;19.03;100.00
48846;BME280;34665;51.886;5.436;2023-02-03T12:20:38;102456.00;;;19.24;100.00
48846;BME280;34665;51.886;5.436;2023-02-03T12:23:21;102449.44;;;18.72;100.00
48846;BME280;34665;51.886;5.436;2023-02-03T12:26:09;102479.13;;;19.40;100.00
48846;BME280;34665;51.886;5.436;2023-02-03T12:36:29;102492.47;;;19.34;100.00
48846;BME280;34665;51.886;5.436;2023-02-03T12:39:05;102492.25;;;19.36;100.00
48846;BME280;34665;51.886;5.436;2023-02-03T12:44:30;102501.13;;;18.77;100.00
48846;BME280;34665;51.886;5.436;2023-02-03T12:47:12;102492.44;;;19.94;100.00
48846;BME280;34665;51.886;5.436;2023-02-03T12:55:24;102497.16;;;18.87;100.00
48846;BME280;34665;51.886;5.436;2023-02-03T12:57:59;102497.56;;;18.90;100.00
48846;BME280;34665;51.886;5.436;2023-02-03T13:00:46;102501.53;;;19.15;100.00
48846;BME280;34665;51.886;5.436;2023-02-03T13:03:27;102520.34;;;19.55;100.00
48846;BME280;34665;51.886;5.436;2023-02-03T13:08:38;102510.63;;;19.41;100.00
48846;BME280;34665;51.886;5.436;2023-02-03T13:13:55;102522.88;;;19.50;100.00
48846;BME280;34665;51.886;5.436;2023-02-03T13:16:28;102530.06;;;19.24;100.00
48846;BME280;34665;51.886;5.436;2023-02-03T13:19:01;102535.63;;;19.95;100.00
48846;BME280;34665;51.886;5.436;2023-02-03T13:21:30;102545.00;;;19.54;100.00
48846;BME280;34665;51.886;5.436;2023-02-03T13:23:56;102536.72;;;19.35;100.00
48846;BME280;34665;51.886;5.436;2023-02-03T13:31:48;102547.63;;;19.01;100.00
48846;BME280;34665;51.886;5.436;2023-02-03T13:44:43;102552.44;;;18.99;100.00
48846;BME280;34665;51.886;5.436;2023-02-03T13:47:16;102551.22;;;19.61;100.00
48846;BME280;34665;51.886;5.436;2023-02-03T13:49:48;102557.25;;;19.70;100.00
48846;BME280;34665;51.886;5.436;2023-02-03T13:52:23;102556.78;;;19.14;100.00
48846;BME280;34665;51.886;5.436;2023-02-03T13:54:51;102561.19;;;19.15;100.00
48846;BME280;34665;51.886;5.436;2023-02-03T13:57:20;102556.03;;;19.59;100.00
48846;BME280;34665;51.886;5.436;2023-02-03T13:59:46;102555.09;;;19.13;100.00
48846;BME280;34665;51.886;5.436;2023-02-03T14:04:56;102563.59;;;19.37;100.00
48846;BME280;34665;51.886;5.436;2023-02-03T14:20:49;102550.31;;;18.88;100.00
48846;BME280;34665;51.886;5.436;2023-02-03T14:23:24;102567.00;;;19.12;100.00
48846;BME280;34665;51.886;5.436;2023-02-03T14:25:54;102554.50;;;18.84;100.00
48846;BME280;34665;51.886;5.436;2023-02-03T14:28:24;102570.97;;;18.75;100.00